McElveen, Mississippi
Current Conditions -  °F | °C
As of 6:53 AM on Sunday 21 Dec 2014 (Local Time) from KMCB Reporting Station
Broken Clouds Broken Clouds  
Wind Chill: 39°   Ceiling: 1900
Heat Index: 42°   Visibility: 10mi
Dew Point: 38°   Wind: 5mph
Humidity: 85%   Direction: 50°NE
Pressure: 30.13"   Gusts: NA
Location:  31.2993°N, 90.4958°W
Report Text: KMCB 211253Z AUTO 05004KT 10SM SCT013 BKN019 06/03 A3013 RMK AO2 SLP201 T00560033
Loading
Personal Weather Stations






























Interactive Weather Map New forecast layout! Learn more

10-Day Weather Forecast

Advertisements
Track Severe Weather on mobile